sensor_id;sensor_type;location;lat;lon;timestamp;P1;durP1;ratioP1;P2;durP2;ratioP2
41964;SDS011;50120;53.250;8.702;2022-07-26T00:02:10;11.00;;;1.83;;
41964;SDS011;50120;53.250;8.702;2022-07-26T00:04:36;8.52;;;2.05;;
41964;SDS011;50120;53.250;8.702;2022-07-26T00:07:01;8.70;;;1.52;;
41964;SDS011;50120;53.250;8.702;2022-07-26T00:09:27;10.88;;;2.10;;
41964;SDS011;50120;53.250;8.702;2022-07-26T00:11:53;10.57;;;2.00;;
41964;SDS011;50120;53.250;8.702;2022-07-26T00:14:18;7.57;;;1.63;;
41964;SDS011;50120;53.250;8.702;2022-07-26T00:16:44;8.48;;;1.83;;
41964;SDS011;50120;53.250;8.702;2022-07-26T00:19:10;13.38;;;1.80;;
41964;SDS011;50120;53.250;8.702;2022-07-26T00:21:36;5.75;;;1.50;;
41964;SDS011;50120;53.250;8.702;2022-07-26T00:24:02;9.18;;;1.98;;
41964;SDS011;50120;53.250;8.702;2022-07-26T00:26:29;9.20;;;1.50;;
41964;SDS011;50120;53.250;8.702;2022-07-26T00:28:54;7.63;;;1.73;;
41964;SDS011;50120;53.250;8.702;2022-07-26T00:31:20;8.73;;;1.55;;
41964;SDS011;50120;53.250;8.702;2022-07-26T00:33:46;8.45;;;1.90;;
41964;SDS011;50120;53.250;8.702;2022-07-26T00:36:12;9.23;;;1.90;;
41964;SDS011;50120;53.250;8.702;2022-07-26T00:38:38;7.78;;;1.52;;
41964;SDS011;50120;53.250;8.702;2022-07-26T00:41:04;10.07;;;2.08;;
41964;SDS011;50120;53.250;8.702;2022-07-26T00:43:31;8.25;;;2.10;;
41964;SDS011;50120;53.250;8.702;2022-07-26T00:45:57;9.68;;;1.85;;
41964;SDS011;50120;53.250;8.702;2022-07-26T00:48:23;6.07;;;1.60;;
41964;SDS011;50120;53.250;8.702;2022-07-26T00:50:49;9.65;;;2.03;;
41964;SDS011;50120;53.250;8.702;2022-07-26T00:53:19;6.80;;;1.83;;
41964;SDS011;50120;53.250;8.702;2022-07-26T00:55:46;5.43;;;1.55;;
41964;SDS011;50120;53.250;8.702;2022-07-26T00:58:13;6.85;;;1.70;;
41964;SDS011;50120;53.250;8.702;2022-07-26T01:00:39;10.20;;;1.83;;
41964;SDS011;50120;53.250;8.702;2022-07-26T01:03:05;5.72;;;1.65;;
41964;SDS011;50120;53.250;8.702;2022-07-26T01:05:31;6.57;;;1.92;;
41964;SDS011;50120;53.250;8.702;2022-07-26T01:07:57;10.73;;;1.65;;
41964;SDS011;50120;53.250;8.702;2022-07-26T01:10:23;4.15;;;1.70;;
41964;SDS011;50120;53.250;8.702;2022-07-26T01:12:49;8.25;;;1.90;;
41964;SDS011;50120;53.250;8.702;2022-07-26T01:15:15;15.23;;;2.28;;
41964;SDS011;50120;53.250;8.702;2022-07-26T01:17:42;14.93;;;1.80;;
41964;SDS011;50120;53.250;8.702;2022-07-26T01:20:08;9.60;;;2.13;;
41964;SDS011;50120;53.250;8.702;2022-07-26T01:22:36;9.45;;;2.05;;
41964;SDS011;50120;53.250;8.702;2022-07-26T01:25:02;12.10;;;2.05;;
41964;SDS011;50120;53.250;8.702;2022-07-26T01:27:28;8.63;;;1.63;;
41964;SDS011;50120;53.250;8.702;2022-07-26T01:29:54;8.15;;;1.73;;
41964;SDS011;50120;53.250;8.702;2022-07-26T01:32:20;11.15;;;2.20;;
41964;SDS011;50120;53.250;8.702;2022-07-26T01:34:48;9.45;;;2.20;;
41964;SDS011;50120;53.250;8.702;2022-07-26T01:37:13;17.65;;;2.47;;
41964;SDS011;50120;53.250;8.702;2022-07-26T01:39:39;10.40;;;2.13;;
41964;SDS011;50120;53.250;8.702;2022-07-26T01:42:05;10.43;;;2.10;;
41964;SDS011;50120;53.250;8.702;2022-07-26T01:44:31;7.90;;;1.80;;
41964;SDS011;50120;53.250;8.702;2022-07-26T01:46:56;7.38;;;1.98;;
41964;SDS011;50120;53.250;8.702;2022-07-26T01:49:22;11.82;;;2.60;;
41964;SDS011;50120;53.250;8.702;2022-07-26T01:51:47;14.27;;;2.40;;
41964;SDS011;50120;53.250;8.702;2022-07-26T01:54:13;7.32;;;2.00;;
41964;SDS011;50120;53.250;8.702;2022-07-26T01:56:39;9.38;;;2.00;;
41964;SDS011;50120;53.250;8.702;2022-07-26T01:59:05;7.85;;;2.13;;
41964;SDS011;50120;53.250;8.702;2022-07-26T02:01:31;15.75;;;2.63;;
41964;SDS011;50120;53.250;8.702;2022-07-26T02:03:59;10.75;;;2.00;;
41964;SDS011;50120;53.250;8.702;2022-07-26T02:06:25;11.38;;;2.28;;
41964;SDS011;50120;53.250;8.702;2022-07-26T02:08:50;13.80;;;2.40;;
41964;SDS011;50120;53.250;8.702;2022-07-26T02:11:16;13.02;;;2.47;;
41964;SDS011;50120;53.250;8.702;2022-07-26T02:13:42;9.73;;;2.15;;
41964;SDS011;50120;53.250;8.702;2022-07-26T02:16:09;11.00;;;2.35;;
41964;SDS011;50120;53.250;8.702;2022-07-26T02:18:37;11.18;;;2.10;;
41964;SDS011;50120;53.250;8.702;2022-07-26T02:21:05;12.00;;;2.45;;
41964;SDS011;50120;53.250;8.702;2022-07-26T02:23:31;14.73;;;2.38;;
41964;SDS011;50120;53.250;8.702;2022-07-26T02:25:58;12.05;;;2.78;;
41964;SDS011;50120;53.250;8.702;2022-07-26T02:28:24;9.15;;;2.30;;
41964;SDS011;50120;53.250;8.702;2022-07-26T02:30:50;11.50;;;2.65;;
41964;SDS011;50120;53.250;8.702;2022-07-26T02:33:16;10.02;;;2.30;;
41964;SDS011;50120;53.250;8.702;2022-07-26T02:35:42;11.02;;;2.30;;
41964;SDS011;50120;53.250;8.702;2022-07-26T02:38:10;13.55;;;2.30;;
41964;SDS011;50120;53.250;8.702;2022-07-26T02:40:37;7.93;;;2.58;;
41964;SDS011;50120;53.250;8.702;2022-07-26T02:43:04;6.50;;;1.90;;
41964;SDS011;50120;53.250;8.702;2022-07-26T02:45:31;10.52;;;2.55;;
41964;SDS011;50120;53.250;8.702;2022-07-26T02:47:58;9.70;;;2.28;;
41964;SDS011;50120;53.250;8.702;2022-07-26T02:50:24;15.43;;;3.15;;
41964;SDS011;50120;53.250;8.702;2022-07-26T02:52:52;12.50;;;2.67;;
41964;SDS011;50120;53.250;8.702;2022-07-26T02:55:19;12.80;;;2.75;;
41964;SDS011;50120;53.250;8.702;2022-07-26T02:57:47;11.82;;;2.60;;
41964;SDS011;50120;53.250;8.702;2022-07-26T03:00:17;8.98;;;2.38;;
41964;SDS011;50120;53.250;8.702;2022-07-26T03:02:45;7.43;;;2.15;;
41964;SDS011;50120;53.250;8.702;2022-07-26T03:05:13;8.63;;;2.45;;
41964;SDS011;50120;53.250;8.702;2022-07-26T03:07:39;12.45;;;2.40;;
41964;SDS011;50120;53.250;8.702;2022-07-26T03:10:04;10.95;;;2.50;;
41964;SDS011;50120;53.250;8.702;2022-07-26T03:12:31;11.80;;;2.65;;
41964;SDS011;50120;53.250;8.702;2022-07-26T03:14:57;11.50;;;2.80;;
41964;SDS011;50120;53.250;8.702;2022-07-26T03:17:22;10.80;;;2.75;;
41964;SDS011;50120;53.250;8.702;2022-07-26T03:19:48;7.85;;;2.47;;
41964;SDS011;50120;53.250;8.702;2022-07-26T03:22:14;11.38;;;2.72;;
41964;SDS011;50120;53.250;8.702;2022-07-26T03:24:40;15.00;;;3.10;;
41964;SDS011;50120;53.250;8.702;2022-07-26T03:27:05;12.73;;;2.42;;
41964;SDS011;50120;53.250;8.702;2022-07-26T03:29:31;9.45;;;2.30;;
41964;SDS011;50120;53.250;8.702;2022-07-26T03:31:57;11.45;;;2.42;;
41964;SDS011;50120;53.250;8.702;2022-07-26T03:34:23;14.32;;;2.60;;
41964;SDS011;50120;53.250;8.702;2022-07-26T03:36:48;13.13;;;2.78;;
41964;SDS011;50120;53.250;8.702;2022-07-26T03:39:14;13.55;;;3.00;;
41964;SDS011;50120;53.250;8.702;2022-07-26T03:41:40;9.27;;;3.10;;
41964;SDS011;50120;53.250;8.702;2022-07-26T03:44:06;12.93;;;2.97;;
41964;SDS011;50120;53.250;8.702;2022-07-26T03:46:32;13.57;;;3.15;;
41964;SDS011;50120;53.250;8.702;2022-07-26T03:48:58;9.65;;;2.83;;
41964;SDS011;50120;53.250;8.702;2022-07-26T03:51:24;7.60;;;2.55;;
41964;SDS011;50120;53.250;8.702;2022-07-26T03:53:50;10.00;;;2.63;;
41964;SDS011;50120;53.250;8.702;2022-07-26T03:56:16;9.25;;;2.47;;
41964;SDS011;50120;53.250;8.702;2022-07-26T03:58:57;16.83;;;3.55;;
41964;SDS011;50120;53.250;8.702;2022-07-26T04:01:24;13.25;;;2.50;;
41964;SDS011;50120;53.250;8.702;2022-07-26T04:03:50;12.68;;;2.72;;
41964;SDS011;50120;53.250;8.702;2022-07-26T04:06:16;13.48;;;2.88;;
41964;SDS011;50120;53.250;8.702;2022-07-26T04:08:42;15.88;;;3.08;;
41964;SDS011;50120;53.250;8.702;2022-07-26T04:11:08;12.98;;;2.75;;
41964;SDS011;50120;53.250;8.702;2022-07-26T04:13:34;9.95;;;2.90;;
41964;SDS011;50120;53.250;8.702;2022-07-26T04:16:00;15.13;;;3.20;;
41964;SDS011;50120;53.250;8.702;2022-07-26T04:18:29;12.85;;;2.55;;
41964;SDS011;50120;53.250;8.702;2022-07-26T04:20:55;14.07;;;2.70;;
41964;SDS011;50120;53.250;8.702;2022-07-26T04:23:21;8.15;;;2.63;;
41964;SDS011;50120;53.250;8.702;2022-07-26T04:25:47;11.07;;;2.70;;
41964;SDS011;50120;53.250;8.702;2022-07-26T04:28:12;10.05;;;2.83;;
41964;SDS011;50120;53.250;8.702;2022-07-26T04:30:38;16.77;;;3.17;;
41964;SDS011;50120;53.250;8.702;2022-07-26T04:33:04;12.15;;;3.00;;
41964;SDS011;50120;53.250;8.702;2022-07-26T04:35:31;15.02;;;3.00;;
41964;SDS011;50120;53.250;8.702;2022-07-26T04:37:57;12.15;;;3.10;;
41964;SDS011;50120;53.250;8.702;2022-07-26T04:40:24;12.35;;;2.65;;
41964;SDS011;50120;53.250;8.702;2022-07-26T04:42:52;9.43;;;2.72;;
41964;SDS011;50120;53.250;8.702;2022-07-26T04:45:18;13.98;;;3.35;;
41964;SDS011;50120;53.250;8.702;2022-07-26T04:47:48;9.20;;;2.95;;
41964;SDS011;50120;53.250;8.702;2022-07-26T04:50:14;16.13;;;3.50;;
41964;SDS011;50120;53.250;8.702;2022-07-26T04:52:40;13.18;;;3.53;;
41964;SDS011;50120;53.250;8.702;2022-07-26T04:55:07;17.33;;;4.05;;
41964;SDS011;50120;53.250;8.702;2022-07-26T06:20:52;4.70;;;1.10;;
41964;SDS011;50120;53.250;8.702;2022-07-26T06:23:18;3.88;;;0.80;;
41964;SDS011;50120;53.250;8.702;2022-07-26T06:25:44;1.45;;;0.75;;
41964;SDS011;50120;53.250;8.702;2022-07-26T06:28:10;5.13;;;0.85;;
41964;SDS011;50120;53.250;8.702;2022-07-26T06:30:36;2.85;;;0.70;;
41964;SDS011;50120;53.250;8.702;2022-07-26T06:33:02;4.55;;;0.80;;
41964;SDS011;50120;53.250;8.702;2022-07-26T06:35:29;5.07;;;1.10;;
41964;SDS011;50120;53.250;8.702;2022-07-26T06:37:56;2.30;;;0.73;;
41964;SDS011;50120;53.250;8.702;2022-07-26T06:40:24;4.07;;;1.00;;
41964;SDS011;50120;53.250;8.702;2022-07-26T06:42:52;5.28;;;0.90;;
41964;SDS011;50120;53.250;8.702;2022-07-26T06:45:18;4.97;;;0.90;;
41964;SDS011;50120;53.250;8.702;2022-07-26T06:47:44;2.88;;;0.75;;
41964;SDS011;50120;53.250;8.702;2022-07-26T06:50:10;4.70;;;0.80;;
41964;SDS011;50120;53.250;8.702;2022-07-26T06:52:36;3.55;;;0.88;;
41964;SDS011;50120;53.250;8.702;2022-07-26T06:55:01;7.35;;;0.77;;
41964;SDS011;50120;53.250;8.702;2022-07-26T06:57:28;7.32;;;0.82;;
41964;SDS011;50120;53.250;8.702;2022-07-26T06:59:54;6.82;;;1.10;;
41964;SDS011;50120;53.250;8.702;2022-07-26T07:02:20;4.80;;;0.70;;
41964;SDS011;50120;53.250;8.702;2022-07-26T07:04:45;4.47;;;0.65;;
41964;SDS011;50120;53.250;8.702;2022-07-26T07:07:11;5.10;;;0.95;;
41964;SDS011;50120;53.250;8.702;2022-07-26T07:09:37;8.95;;;0.90;;
41964;SDS011;50120;53.250;8.702;2022-07-26T07:12:03;4.78;;;0.90;;
41964;SDS011;50120;53.250;8.702;2022-07-26T07:14:30;4.78;;;0.90;;
41964;SDS011;50120;53.250;8.702;2022-07-26T07:16:56;4.25;;;0.80;;
41964;SDS011;50120;53.250;8.702;2022-07-26T07:19:22;4.90;;;0.90;;
41964;SDS011;50120;53.250;8.702;2022-07-26T07:21:48;2.40;;;0.75;;
41964;SDS011;50120;53.250;8.702;2022-07-26T07:24:14;5.30;;;0.80;;
41964;SDS011;50120;53.250;8.702;2022-07-26T07:26:44;13.05;;;1.25;;
41964;SDS011;50120;53.250;8.702;2022-07-26T07:29:10;2.42;;;0.50;;
41964;SDS011;50120;53.250;8.702;2022-07-26T07:31:39;8.70;;;1.10;;
41964;SDS011;50120;53.250;8.702;2022-07-26T07:34:05;4.65;;;0.90;;
41964;SDS011;50120;53.250;8.702;2022-07-26T07:36:32;2.53;;;0.60;;
41964;SDS011;50120;53.250;8.702;2022-07-26T07:38:57;11.60;;;1.23;;
41964;SDS011;50120;53.250;8.702;2022-07-26T07:41:24;7.75;;;1.08;;
41964;SDS011;50120;53.250;8.702;2022-07-26T07:43:49;5.18;;;0.93;;
41964;SDS011;50120;53.250;8.702;2022-07-26T07:46:15;6.40;;;0.90;;
41964;SDS011;50120;53.250;8.702;2022-07-26T07:48:43;2.08;;;0.80;;
41964;SDS011;50120;53.250;8.702;2022-07-26T07:51:09;2.97;;;0.88;;
41964;SDS011;50120;53.250;8.702;2022-07-26T07:53:35;3.65;;;0.60;;
41964;SDS011;50120;53.250;8.702;2022-07-26T07:56:00;6.05;;;0.90;;
41964;SDS011;50120;53.250;8.702;2022-07-26T07:58:29;6.45;;;0.85;;
41964;SDS011;50120;53.250;8.702;2022-07-26T08:00:55;7.75;;;1.50;;
41964;SDS011;50120;53.250;8.702;2022-07-26T08:03:20;4.95;;;1.30;;
41964;SDS011;50120;53.250;8.702;2022-07-26T08:05:46;8.73;;;1.10;;
41964;SDS011;50120;53.250;8.702;2022-07-26T08:08:12;4.55;;;0.90;;
41964;SDS011;50120;53.250;8.702;2022-07-26T08:10:38;5.28;;;0.90;;
41964;SDS011;50120;53.250;8.702;2022-07-26T08:13:04;6.43;;;1.13;;
41964;SDS011;50120;53.250;8.702;2022-07-26T08:15:30;7.72;;;1.13;;
41964;SDS011;50120;53.250;8.702;2022-07-26T08:17:55;3.78;;;0.65;;
41964;SDS011;50120;53.250;8.702;2022-07-26T08:20:21;5.28;;;1.20;;
41964;SDS011;50120;53.250;8.702;2022-07-26T08:22:47;5.78;;;0.95;;
41964;SDS011;50120;53.250;8.702;2022-07-26T08:25:13;4.20;;;0.70;;
41964;SDS011;50120;53.250;8.702;2022-07-26T08:27:38;2.92;;;0.70;;
41964;SDS011;50120;53.250;8.702;2022-07-26T08:30:04;4.38;;;0.63;;
41964;SDS011;50120;53.250;8.702;2022-07-26T08:32:30;7.85;;;1.10;;
41964;SDS011;50120;53.250;8.702;2022-07-26T08:34:56;7.63;;;0.70;;
41964;SDS011;50120;53.250;8.702;2022-07-26T08:37:22;6.20;;;0.88;;
41964;SDS011;50120;53.250;8.702;2022-07-26T08:39:47;11.90;;;1.08;;
41964;SDS011;50120;53.250;8.702;2022-07-26T08:42:14;5.95;;;0.80;;
41964;SDS011;50120;53.250;8.702;2022-07-26T08:44:45;6.15;;;1.10;;
41964;SDS011;50120;53.250;8.702;2022-07-26T08:47:12;4.22;;;0.80;;
41964;SDS011;50120;53.250;8.702;2022-07-26T08:49:39;5.40;;;0.80;;
41964;SDS011;50120;53.250;8.702;2022-07-26T08:52:05;2.75;;;0.68;;
41964;SDS011;50120;53.250;8.702;2022-07-26T08:54:31;5.95;;;0.60;;
41964;SDS011;50120;53.250;8.702;2022-07-26T08:56:57;8.30;;;1.10;;
41964;SDS011;50120;53.250;8.702;2022-07-26T08:59:23;4.97;;;0.60;;
41964;SDS011;50120;53.250;8.702;2022-07-26T09:04:28;2.13;;;0.50;;
41964;SDS011;50120;53.250;8.702;2022-07-26T09:06:59;5.78;;;0.75;;
41964;SDS011;50120;53.250;8.702;2022-07-26T09:10:16;3.13;;;0.52;;
41964;SDS011;50120;53.250;8.702;2022-07-26T09:12:39;5.47;;;0.67;;
41964;SDS011;50120;53.250;8.702;2022-07-26T09:15:07;4.32;;;0.70;;
41964;SDS011;50120;53.250;8.702;2022-07-26T09:17:46;8.32;;;0.88;;
41964;SDS011;50120;53.250;8.702;2022-07-26T09:20:17;6.07;;;0.60;;
41964;SDS011;50120;53.250;8.702;2022-07-26T09:25:27;5.88;;;1.05;;
41964;SDS011;50120;53.250;8.702;2022-07-26T09:27:55;5.18;;;0.77;;
41964;SDS011;50120;53.250;8.702;2022-07-26T09:30:21;3.17;;;0.75;;
41964;SDS011;50120;53.250;8.702;2022-07-26T09:33:05;10.77;;;4.03;;
41964;SDS011;50120;53.250;8.702;2022-07-26T09:35:32;41.85;;;18.00;;
41964;SDS011;50120;53.250;8.702;2022-07-26T09:38:00;42.22;;;17.38;;
41964;SDS011;50120;53.250;8.702;2022-07-26T09:40:32;27.80;;;10.40;;
41964;SDS011;50120;53.250;8.702;2022-07-26T09:43:00;13.70;;;5.25;;
41964;SDS011;50120;53.250;8.702;2022-07-26T09:45:31;9.55;;;3.50;;
41964;SDS011;50120;53.250;8.702;2022-07-26T09:47:58;15.20;;;4.90;;
41964;SDS011;50120;53.250;8.702;2022-07-26T09:50:29;9.65;;;2.72;;
41964;SDS011;50120;53.250;8.702;2022-07-26T09:56:15;5.20;;;1.10;;
41964;SDS011;50120;53.250;8.702;2022-07-26T09:58:22;6.40;;;1.50;;
41964;SDS011;50120;53.250;8.702;2022-07-26T10:00:49;3.20;;;0.80;;
41964;SDS011;50120;53.250;8.702;2022-07-26T10:03:15;8.60;;;1.00;;
41964;SDS011;50120;53.250;8.702;2022-07-26T10:05:40;3.53;;;0.85;;
41964;SDS011;50120;53.250;8.702;2022-07-26T10:08:06;3.33;;;1.00;;
41964;SDS011;50120;53.250;8.702;2022-07-26T10:10:34;5.10;;;0.73;;
41964;SDS011;50120;53.250;8.702;2022-07-26T10:13:04;4.50;;;0.50;;
41964;SDS011;50120;53.250;8.702;2022-07-26T10:15:36;3.60;;;0.73;;
41964;SDS011;50120;53.250;8.702;2022-07-26T10:21:17;4.03;;;0.70;;
41964;SDS011;50120;53.250;8.702;2022-07-26T10:23:56;5.22;;;0.90;;
41964;SDS011;50120;53.250;8.702;2022-07-26T10:34:08;4.93;;;0.98;;
41964;SDS011;50120;53.250;8.702;2022-07-26T10:36:35;4.78;;;0.70;;
41964;SDS011;50120;53.250;8.702;2022-07-26T10:39:12;2.05;;;0.60;;
41964;SDS011;50120;53.250;8.702;2022-07-26T10:41:44;3.40;;;0.85;;
41964;SDS011;50120;53.250;8.702;2022-07-26T10:44:15;3.00;;;0.82;;
41964;SDS011;50120;53.250;8.702;2022-07-26T10:49:20;5.13;;;1.08;;
41964;SDS011;50120;53.250;8.702;2022-07-26T10:52:12;7.60;;;1.63;;
41964;SDS011;50120;53.250;8.702;2022-07-26T10:57:28;4.28;;;1.08;;
41964;SDS011;50120;53.250;8.702;2022-07-26T10:59:57;7.38;;;0.90;;
41964;SDS011;50120;53.250;8.702;2022-07-26T11:02:31;9.27;;;2.10;;
41964;SDS011;50120;53.250;8.702;2022-07-26T11:05:01;4.28;;;1.20;;
41964;SDS011;50120;53.250;8.702;2022-07-26T11:07:29;6.55;;;1.25;;
41964;SDS011;50120;53.250;8.702;2022-07-26T11:09:56;8.50;;;1.67;;
41964;SDS011;50120;53.250;8.702;2022-07-26T11:12:22;5.57;;;1.13;;
41964;SDS011;50120;53.250;8.702;2022-07-26T11:14:48;4.60;;;0.88;;
41964;SDS011;50120;53.250;8.702;2022-07-26T11:17:21;2.90;;;0.88;;
41964;SDS011;50120;53.250;8.702;2022-07-26T11:19:52;11.25;;;1.67;;
41964;SDS011;50120;53.250;8.702;2022-07-26T11:22:19;7.63;;;1.30;;
41964;SDS011;50120;53.250;8.702;2022-07-26T11:24:55;7.45;;;1.20;;
41964;SDS011;50120;53.250;8.702;2022-07-26T11:27:21;11.77;;;1.70;;
41964;SDS011;50120;53.250;8.702;2022-07-26T11:29:46;7.95;;;1.45;;
41964;SDS011;50120;53.250;8.702;2022-07-26T11:32:20;4.82;;;1.52;;
41964;SDS011;50120;53.250;8.702;2022-07-26T11:34:58;9.68;;;1.55;;
41964;SDS011;50120;53.250;8.702;2022-07-26T11:37:25;3.72;;;1.30;;
41964;SDS011;50120;53.250;8.702;2022-07-26T11:39:51;8.23;;;1.60;;
41964;SDS011;50120;53.250;8.702;2022-07-26T11:42:17;8.73;;;1.67;;
41964;SDS011;50120;53.250;8.702;2022-07-26T11:44:45;11.55;;;1.60;;
41964;SDS011;50120;53.250;8.702;2022-07-26T11:47:19;7.85;;;1.10;;
41964;SDS011;50120;53.250;8.702;2022-07-26T11:49:47;10.40;;;1.70;;
41964;SDS011;50120;53.250;8.702;2022-07-26T11:52:14;6.65;;;1.17;;
41964;SDS011;50120;53.250;8.702;2022-07-26T11:54:45;6.82;;;1.20;;
41964;SDS011;50120;53.250;8.702;2022-07-26T11:57:15;11.70;;;1.85;;
41964;SDS011;50120;53.250;8.702;2022-07-26T11:59:42;6.53;;;1.50;;
41964;SDS011;50120;53.250;8.702;2022-07-26T12:02:10;9.55;;;1.52;;
41964;SDS011;50120;53.250;8.702;2022-07-26T12:04:40;7.25;;;1.42;;
41964;SDS011;50120;53.250;8.702;2022-07-26T12:07:08;10.43;;;1.80;;
41964;SDS011;50120;53.250;8.702;2022-07-26T12:09:36;6.30;;;1.38;;
41964;SDS011;50120;53.250;8.702;2022-07-26T12:12:05;3.38;;;1.10;;
41964;SDS011;50120;53.250;8.702;2022-07-26T12:14:54;10.07;;;1.55;;
41964;SDS011;50120;53.250;8.702;2022-07-26T12:17:21;6.72;;;1.50;;
41964;SDS011;50120;53.250;8.702;2022-07-26T12:19:47;6.88;;;1.30;;
41964;SDS011;50120;53.250;8.702;2022-07-26T12:22:17;6.97;;;1.55;;
41964;SDS011;50120;53.250;8.702;2022-07-26T12:27:19;7.30;;;1.30;;
41964;SDS011;50120;53.250;8.702;2022-07-26T12:32:31;6.85;;;1.40;;
41964;SDS011;50120;53.250;8.702;2022-07-26T12:37:33;10.50;;;1.40;;
41964;SDS011;50120;53.250;8.702;2022-07-26T12:40:15;9.93;;;1.40;;
41964;SDS011;50120;53.250;8.702;2022-07-26T12:45:14;9.43;;;1.35;;
41964;SDS011;50120;53.250;8.702;2022-07-26T12:47:42;4.20;;;1.05;;
41964;SDS011;50120;53.250;8.702;2022-07-26T12:50:12;3.50;;;0.90;;
41964;SDS011;50120;53.250;8.702;2022-07-26T12:52:39;8.90;;;1.63;;
41964;SDS011;50120;53.250;8.702;2022-07-26T12:55:06;4.75;;;1.17;;
41964;SDS011;50120;53.250;8.702;2022-07-26T12:57:35;5.55;;;0.90;;
41964;SDS011;50120;53.250;8.702;2022-07-26T13:00:02;5.05;;;1.10;;
41964;SDS011;50120;53.250;8.702;2022-07-26T13:02:28;4.43;;;0.85;;
41964;SDS011;50120;53.250;8.702;2022-07-26T13:04:54;5.38;;;1.13;;
41964;SDS011;50120;53.250;8.702;2022-07-26T13:07:20;4.90;;;0.85;;
41964;SDS011;50120;53.250;8.702;2022-07-26T13:09:46;5.63;;;1.15;;
41964;SDS011;50120;53.250;8.702;2022-07-26T13:12:13;3.78;;;0.98;;
41964;SDS011;50120;53.250;8.702;2022-07-26T13:14:40;5.78;;;1.20;;
41964;SDS011;50120;53.250;8.702;2022-07-26T13:17:07;7.38;;;1.13;;
41964;SDS011;50120;53.250;8.702;2022-07-26T13:19:34;6.30;;;1.10;;
41964;SDS011;50120;53.250;8.702;2022-07-26T13:22:01;7.10;;;1.17;;
41964;SDS011;50120;53.250;8.702;2022-07-26T13:24:28;7.35;;;1.00;;
41964;SDS011;50120;53.250;8.702;2022-07-26T13:26:55;5.47;;;1.10;;
41964;SDS011;50120;53.250;8.702;2022-07-26T13:29:21;5.47;;;1.00;;
41964;SDS011;50120;53.250;8.702;2022-07-26T13:31:46;9.18;;;1.00;;
41964;SDS011;50120;53.250;8.702;2022-07-26T13:34:14;7.07;;;1.20;;
41964;SDS011;50120;53.250;8.702;2022-07-26T13:36:40;5.10;;;1.00;;
41964;SDS011;50120;53.250;8.702;2022-07-26T13:39:06;3.10;;;1.00;;
41964;SDS011;50120;53.250;8.702;2022-07-26T13:41:32;2.78;;;0.80;;
41964;SDS011;50120;53.250;8.702;2022-07-26T13:43:58;4.18;;;0.80;;
41964;SDS011;50120;53.250;8.702;2022-07-26T13:46:25;5.30;;;1.63;;
41964;SDS011;50120;53.250;8.702;2022-07-26T13:48:57;6.68;;;0.80;;
41964;SDS011;50120;53.250;8.702;2022-07-26T13:51:24;5.72;;;0.80;;
41964;SDS011;50120;53.250;8.702;2022-07-26T13:54:12;5.10;;;0.70;;
41964;SDS011;50120;53.250;8.702;2022-07-26T13:56:40;5.80;;;1.20;;
41964;SDS011;50120;53.250;8.702;2022-07-26T13:59:07;3.75;;;0.90;;
41964;SDS011;50120;53.250;8.702;2022-07-26T14:01:33;4.82;;;0.90;;
41964;SDS011;50120;53.250;8.702;2022-07-26T14:03:59;9.13;;;1.00;;
41964;SDS011;50120;53.250;8.702;2022-07-26T14:06:27;2.63;;;0.88;;
41964;SDS011;50120;53.250;8.702;2022-07-26T14:08:53;4.63;;;0.93;;
41964;SDS011;50120;53.250;8.702;2022-07-26T14:11:19;6.28;;;1.45;;
41964;SDS011;50120;53.250;8.702;2022-07-26T14:13:44;8.30;;;1.05;;
41964;SDS011;50120;53.250;8.702;2022-07-26T14:16:10;3.92;;;0.88;;
41964;SDS011;50120;53.250;8.702;2022-07-26T14:18:36;5.35;;;0.90;;
41964;SDS011;50120;53.250;8.702;2022-07-26T14:21:02;6.22;;;1.00;;
41964;SDS011;50120;53.250;8.702;2022-07-26T14:23:28;4.40;;;1.00;;
41964;SDS011;50120;53.250;8.702;2022-07-26T14:25:54;3.15;;;0.90;;
41964;SDS011;50120;53.250;8.702;2022-07-26T14:28:20;5.45;;;1.38;;
41964;SDS011;50120;53.250;8.702;2022-07-26T14:30:46;1.77;;;0.63;;
41964;SDS011;50120;53.250;8.702;2022-07-26T14:33:11;3.72;;;1.10;;
41964;SDS011;50120;53.250;8.702;2022-07-26T14:35:37;3.63;;;0.60;;
41964;SDS011;50120;53.250;8.702;2022-07-26T14:38:03;5.13;;;1.15;;
41964;SDS011;50120;53.250;8.702;2022-07-26T14:40:29;5.72;;;1.00;;
41964;SDS011;50120;53.250;8.702;2022-07-26T14:42:55;4.55;;;0.95;;
41964;SDS011;50120;53.250;8.702;2022-07-26T14:45:21;6.60;;;1.08;;
41964;SDS011;50120;53.250;8.702;2022-07-26T14:47:46;3.35;;;0.63;;
41964;SDS011;50120;53.250;8.702;2022-07-26T14:50:12;1.23;;;0.50;;
41964;SDS011;50120;53.250;8.702;2022-07-26T14:52:40;4.18;;;0.80;;
41964;SDS011;50120;53.250;8.702;2022-07-26T14:55:10;3.35;;;0.80;;
41964;SDS011;50120;53.250;8.702;2022-07-26T14:57:38;5.72;;;0.73;;
41964;SDS011;50120;53.250;8.702;2022-07-26T15:00:04;3.08;;;1.00;;
41964;SDS011;50120;53.250;8.702;2022-07-26T15:02:31;4.60;;;0.70;;
41964;SDS011;50120;53.250;8.702;2022-07-26T15:04:57;3.15;;;0.93;;
41964;SDS011;50120;53.250;8.702;2022-07-26T15:07:23;7.22;;;1.00;;
41964;SDS011;50120;53.250;8.702;2022-07-26T15:09:48;1.10;;;0.60;;
41964;SDS011;50120;53.250;8.702;2022-07-26T15:12:14;3.80;;;1.05;;
41964;SDS011;50120;53.250;8.702;2022-07-26T15:14:40;4.40;;;0.80;;
41964;SDS011;50120;53.250;8.702;2022-07-26T15:17:10;4.75;;;1.00;;
41964;SDS011;50120;53.250;8.702;2022-07-26T15:19:37;5.60;;;0.90;;
41964;SDS011;50120;53.250;8.702;2022-07-26T15:22:03;3.97;;;0.70;;
41964;SDS011;50120;53.250;8.702;2022-07-26T15:24:29;7.07;;;0.98;;
41964;SDS011;50120;53.250;8.702;2022-07-26T15:26:54;4.47;;;1.08;;
41964;SDS011;50120;53.250;8.702;2022-07-26T15:29:20;4.85;;;1.00;;
41964;SDS011;50120;53.250;8.702;2022-07-26T15:31:46;6.60;;;1.00;;
41964;SDS011;50120;53.250;8.702;2022-07-26T15:34:13;2.80;;;0.70;;
41964;SDS011;50120;53.250;8.702;2022-07-26T15:36:38;8.40;;;1.05;;
41964;SDS011;50120;53.250;8.702;2022-07-26T15:39:05;5.60;;;1.13;;
41964;SDS011;50120;53.250;8.702;2022-07-26T15:41:31;7.70;;;1.30;;
41964;SDS011;50120;53.250;8.702;2022-07-26T15:43:58;6.75;;;1.17;;
41964;SDS011;50120;53.250;8.702;2022-07-26T15:46:24;7.20;;;1.08;;
41964;SDS011;50120;53.250;8.702;2022-07-26T15:48:50;6.88;;;1.08;;
41964;SDS011;50120;53.250;8.702;2022-07-26T15:51:16;4.72;;;1.00;;
41964;SDS011;50120;53.250;8.702;2022-07-26T15:53:43;5.75;;;0.90;;
41964;SDS011;50120;53.250;8.702;2022-07-26T15:56:09;5.82;;;0.80;;
41964;SDS011;50120;53.250;8.702;2022-07-26T15:58:35;6.03;;;1.20;;
41964;SDS011;50120;53.250;8.702;2022-07-26T16:01:00;7.43;;;1.35;;
41964;SDS011;50120;53.250;8.702;2022-07-26T16:03:26;4.72;;;1.00;;
41964;SDS011;50120;53.250;8.702;2022-07-26T16:05:52;9.82;;;1.20;;
41964;SDS011;50120;53.250;8.702;2022-07-26T16:08:19;4.47;;;1.20;;
41964;SDS011;50120;53.250;8.702;2022-07-26T16:10:45;4.75;;;1.38;;
41964;SDS011;50120;53.250;8.702;2022-07-26T16:13:10;4.28;;;1.13;;
41964;SDS011;50120;53.250;8.702;2022-07-26T16:15:36;4.88;;;1.10;;
41964;SDS011;50120;53.250;8.702;2022-07-26T16:18:02;8.77;;;1.23;;
41964;SDS011;50120;53.250;8.702;2022-07-26T16:20:28;5.22;;;0.93;;
41964;SDS011;50120;53.250;8.702;2022-07-26T16:22:54;5.25;;;0.95;;
41964;SDS011;50120;53.250;8.702;2022-07-26T16:25:20;5.60;;;1.20;;
41964;SDS011;50120;53.250;8.702;2022-07-26T16:27:46;4.55;;;0.90;;
41964;SDS011;50120;53.250;8.702;2022-07-26T16:30:14;5.38;;;1.20;;
41964;SDS011;50120;53.250;8.702;2022-07-26T16:32:41;5.82;;;0.90;;
41964;SDS011;50120;53.250;8.702;2022-07-26T16:35:09;8.10;;;1.23;;
41964;SDS011;50120;53.250;8.702;2022-07-26T16:37:36;8.60;;;1.45;;
41964;SDS011;50120;53.250;8.702;2022-07-26T16:40:02;3.55;;;0.93;;
41964;SDS011;50120;53.250;8.702;2022-07-26T16:42:29;4.53;;;0.80;;
41964;SDS011;50120;53.250;8.702;2022-07-26T16:44:55;7.35;;;1.45;;